Auburn, Georgia
Current Conditions -  °F | °C
As of 7:45 PM on Tuesday 25 Nov 2014 (Local Time) from KLZU Reporting Station
Clear Clear  
Wind Chill: 52°   Ceiling: Unl
Heat Index: 52°   Visibility: 10mi
Dew Point: 34°   Wind: 0mph
Humidity: 50%   Direction: NA
Pressure: 30.04"   Gusts: NA
Location:  34.01°N, 83.83°W
Report Text: KLZU 260045Z 00000KT 10SM CLR 11/01 A3004 RMK ATIS S RWY 25 OO
Loading
Personal Weather Stations






























Interactive Weather Map New forecast layout! Learn more

10-Day Weather Forecast

Advertisements
Track Severe Weather on mobile